sensor_id;sensor_type;location;lat;lon;timestamp;temperature;humidity
12720;DHT22;6424;48.520;11.228;2022-11-15T00:00:09;4.60;99.90
12720;DHT22;6424;48.520;11.228;2022-11-15T00:02:52;4.50;99.90
12720;DHT22;6424;48.520;11.228;2022-11-15T00:05:35;4.50;99.90
12720;DHT22;6424;48.520;11.228;2022-11-15T00:08:16;4.50;99.90
12720;DHT22;6424;48.520;11.228;2022-11-15T00:10:58;4.40;99.90
12720;DHT22;6424;48.520;11.228;2022-11-15T00:13:39;4.40;99.90
12720;DHT22;6424;48.520;11.228;2022-11-15T00:16:20;4.30;99.90
12720;DHT22;6424;48.520;11.228;2022-11-15T00:19:02;4.30;99.90
12720;DHT22;6424;48.520;11.228;2022-11-15T00:21:43;4.20;99.90
12720;DHT22;6424;48.520;11.228;2022-11-15T00:24:23;4.20;99.90
12720;DHT22;6424;48.520;11.228;2022-11-15T00:27:04;4.10;99.90
12720;DHT22;6424;48.520;11.228;2022-11-15T00:29:45;4.10;99.90
12720;DHT22;6424;48.520;11.228;2022-11-15T00:32:30;4.00;99.90
12720;DHT22;6424;48.520;11.228;2022-11-15T00:35:11;4.00;99.90
12720;DHT22;6424;48.520;11.228;2022-11-15T00:37:52;3.90;99.90
12720;DHT22;6424;48.520;11.228;2022-11-15T00:40:33;3.90;99.90
12720;DHT22;6424;48.520;11.228;2022-11-15T00:43:14;3.80;99.90
12720;DHT22;6424;48.520;11.228;2022-11-15T00:45:55;3.80;99.90
12720;DHT22;6424;48.520;11.228;2022-11-15T00:48:36;3.80;99.90
12720;DHT22;6424;48.520;11.228;2022-11-15T00:51:17;3.80;99.90
12720;DHT22;6424;48.520;11.228;2022-11-15T00:53:58;3.80;99.90
12720;DHT22;6424;48.520;11.228;2022-11-15T00:56:39;3.80;99.90
12720;DHT22;6424;48.520;11.228;2022-11-15T00:59:20;3.80;99.90
12720;DHT22;6424;48.520;11.228;2022-11-15T01:02:01;3.80;99.90
12720;DHT22;6424;48.520;11.228;2022-11-15T01:04:41;3.70;99.90
12720;DHT22;6424;48.520;11.228;2022-11-15T01:07:22;3.70;99.90
12720;DHT22;6424;48.520;11.228;2022-11-15T01:09:48;3.70;99.90
12720;DHT22;6424;48.520;11.228;2022-11-15T01:12:29;3.60;99.90
12720;DHT22;6424;48.520;11.228;2022-11-15T01:14:54;3.60;99.90
12720;DHT22;6424;48.520;11.228;2022-11-15T01:17:20;3.60;99.90
12720;DHT22;6424;48.520;11.228;2022-11-15T01:20:01;3.50;99.90
12720;DHT22;6424;48.520;11.228;2022-11-15T01:22:42;3.50;99.90
12720;DHT22;6424;48.520;11.228;2022-11-15T01:25:23;3.50;99.90
12720;DHT22;6424;48.520;11.228;2022-11-15T01:28:04;3.40;99.90
12720;DHT22;6424;48.520;11.228;2022-11-15T01:30:44;3.40;99.90
12720;DHT22;6424;48.520;11.228;2022-11-15T01:33:25;3.30;99.90
12720;DHT22;6424;48.520;11.228;2022-11-15T01:36:10;3.30;99.90
12720;DHT22;6424;48.520;11.228;2022-11-15T01:38:58;3.20;99.90
12720;DHT22;6424;48.520;11.228;2022-11-15T01:41:39;3.20;99.90
12720;DHT22;6424;48.520;11.228;2022-11-15T01:47:33;3.10;99.90
12720;DHT22;6424;48.520;11.228;2022-11-15T01:50:19;3.00;99.90
12720;DHT22;6424;48.520;11.228;2022-11-15T01:53:02;3.00;99.90
12720;DHT22;6424;48.520;11.228;2022-11-15T01:55:42;2.90;99.90
12720;DHT22;6424;48.520;11.228;2022-11-15T01:58:23;2.90;99.90
12720;DHT22;6424;48.520;11.228;2022-11-15T02:01:04;2.80;99.90
12720;DHT22;6424;48.520;11.228;2022-11-15T02:04:01;2.80;99.90
12720;DHT22;6424;48.520;11.228;2022-11-15T02:06:45;2.80;99.90
12720;DHT22;6424;48.520;11.228;2022-11-15T02:09:27;2.80;99.90
12720;DHT22;6424;48.520;11.228;2022-11-15T02:12:09;2.70;99.90
12720;DHT22;6424;48.520;11.228;2022-11-15T02:14:53;2.70;99.90
12720;DHT22;6424;48.520;11.228;2022-11-15T02:17:57;2.70;99.90
12720;DHT22;6424;48.520;11.228;2022-11-15T02:23:28;2.60;99.90
12720;DHT22;6424;48.520;11.228;2022-11-15T02:29:11;2.50;99.90
12720;DHT22;6424;48.520;11.228;2022-11-15T02:32:04;2.50;99.90
12720;DHT22;6424;48.520;11.228;2022-11-15T02:41:03;2.40;99.90
12720;DHT22;6424;48.520;11.228;2022-11-15T02:44:05;2.40;99.90
12720;DHT22;6424;48.520;11.228;2022-11-15T02:49:40;2.30;99.90
12720;DHT22;6424;48.520;11.228;2022-11-15T02:52:24;2.30;99.90
12720;DHT22;6424;48.520;11.228;2022-11-15T02:55:31;2.30;99.90
12720;DHT22;6424;48.520;11.228;2022-11-15T03:09:56;2.10;99.90
12720;DHT22;6424;48.520;11.228;2022-11-15T03:13:30;2.10;99.90
12720;DHT22;6424;48.520;11.228;2022-11-15T03:15:56;2.10;99.90
12720;DHT22;6424;48.520;11.228;2022-11-15T03:18:43;2.00;99.90
12720;DHT22;6424;48.520;11.228;2022-11-15T03:21:28;2.00;99.90
12720;DHT22;6424;48.520;11.228;2022-11-15T03:24:11;2.00;99.90
12720;DHT22;6424;48.520;11.228;2022-11-15T03:26:54;2.10;99.90
12720;DHT22;6424;48.520;11.228;2022-11-15T03:29:39;2.10;99.90
12720;DHT22;6424;48.520;11.228;2022-11-15T03:32:25;2.10;99.90
12720;DHT22;6424;48.520;11.228;2022-11-15T03:35:11;2.10;99.90
12720;DHT22;6424;48.520;11.228;2022-11-15T03:40:59;2.20;99.90
12720;DHT22;6424;48.520;11.228;2022-11-15T03:43:42;2.30;99.90
12720;DHT22;6424;48.520;11.228;2022-11-15T03:46:38;2.50;99.90
12720;DHT22;6424;48.520;11.228;2022-11-15T03:49:25;2.50;99.90
12720;DHT22;6424;48.520;11.228;2022-11-15T03:52:09;2.50;99.90
12720;DHT22;6424;48.520;11.228;2022-11-15T03:54:54;2.60;99.90
12720;DHT22;6424;48.520;11.228;2022-11-15T03:57:35;2.50;99.90
12720;DHT22;6424;48.520;11.228;2022-11-15T04:00:16;2.30;99.90
12720;DHT22;6424;48.520;11.228;2022-11-15T04:02:57;2.30;99.90
12720;DHT22;6424;48.520;11.228;2022-11-15T04:05:38;2.30;99.90
12720;DHT22;6424;48.520;11.228;2022-11-15T04:08:19;2.20;99.90
12720;DHT22;6424;48.520;11.228;2022-11-15T04:10:44;2.20;99.90
12720;DHT22;6424;48.520;11.228;2022-11-15T04:13:25;2.10;99.90
12720;DHT22;6424;48.520;11.228;2022-11-15T04:16:06;2.10;99.90
12720;DHT22;6424;48.520;11.228;2022-11-15T04:18:47;2.10;99.90
12720;DHT22;6424;48.520;11.228;2022-11-15T04:21:47;2.00;99.90
12720;DHT22;6424;48.520;11.228;2022-11-15T04:24:46;2.00;99.90
12720;DHT22;6424;48.520;11.228;2022-11-15T04:27:27;1.90;99.90
12720;DHT22;6424;48.520;11.228;2022-11-15T04:30:08;2.00;99.90
12720;DHT22;6424;48.520;11.228;2022-11-15T04:32:49;1.90;99.90
12720;DHT22;6424;48.520;11.228;2022-11-15T04:35:30;1.90;99.90
12720;DHT22;6424;48.520;11.228;2022-11-15T04:38:11;1.90;99.90
12720;DHT22;6424;48.520;11.228;2022-11-15T04:40:52;1.90;99.90
12720;DHT22;6424;48.520;11.228;2022-11-15T04:43:33;1.90;99.90
12720;DHT22;6424;48.520;11.228;2022-11-15T04:46:14;1.80;99.90
12720;DHT22;6424;48.520;11.228;2022-11-15T04:48:40;1.80;99.90
12720;DHT22;6424;48.520;11.228;2022-11-15T04:51:20;1.80;99.90
12720;DHT22;6424;48.520;11.228;2022-11-15T04:54:01;1.70;99.90
12720;DHT22;6424;48.520;11.228;2022-11-15T04:56:42;1.70;99.90
12720;DHT22;6424;48.520;11.228;2022-11-15T04:59:23;1.60;99.90
12720;DHT22;6424;48.520;11.228;2022-11-15T05:02:03;1.60;99.90
12720;DHT22;6424;48.520;11.228;2022-11-15T05:04:44;1.50;99.90
12720;DHT22;6424;48.520;11.228;2022-11-15T05:07:25;1.50;99.90
12720;DHT22;6424;48.520;11.228;2022-11-15T05:10:06;1.50;99.90
12720;DHT22;6424;48.520;11.228;2022-11-15T05:12:47;1.50;99.90
12720;DHT22;6424;48.520;11.228;2022-11-15T05:15:28;1.40;99.90
12720;DHT22;6424;48.520;11.228;2022-11-15T05:18:09;1.40;99.90
12720;DHT22;6424;48.520;11.228;2022-11-15T05:20:50;1.40;99.90
12720;DHT22;6424;48.520;11.228;2022-11-15T05:23:30;1.30;99.90
12720;DHT22;6424;48.520;11.228;2022-11-15T05:26:12;1.30;99.90
12720;DHT22;6424;48.520;11.228;2022-11-15T05:28:57;1.30;99.90
12720;DHT22;6424;48.520;11.228;2022-11-15T05:31:40;1.30;99.90
12720;DHT22;6424;48.520;11.228;2022-11-15T05:34:22;1.30;99.90
12720;DHT22;6424;48.520;11.228;2022-11-15T05:37:05;1.20;99.90
12720;DHT22;6424;48.520;11.228;2022-11-15T05:39:46;1.20;99.90
12720;DHT22;6424;48.520;11.228;2022-11-15T05:42:27;1.20;99.90
12720;DHT22;6424;48.520;11.228;2022-11-15T05:45:08;1.20;99.90
12720;DHT22;6424;48.520;11.228;2022-11-15T05:47:50;1.20;99.90
12720;DHT22;6424;48.520;11.228;2022-11-15T05:50:32;1.20;99.90
12720;DHT22;6424;48.520;11.228;2022-11-15T05:52:59;1.10;99.90
12720;DHT22;6424;48.520;11.228;2022-11-15T05:55:40;1.10;99.90
12720;DHT22;6424;48.520;11.228;2022-11-15T05:58:21;1.10;99.90
12720;DHT22;6424;48.520;11.228;2022-11-15T06:01:02;1.10;99.90
12720;DHT22;6424;48.520;11.228;2022-11-15T06:03:43;1.10;99.90
12720;DHT22;6424;48.520;11.228;2022-11-15T06:06:24;1.10;99.90
12720;DHT22;6424;48.520;11.228;2022-11-15T06:09:05;1.10;99.90
12720;DHT22;6424;48.520;11.228;2022-11-15T06:11:45;1.10;99.90
12720;DHT22;6424;48.520;11.228;2022-11-15T06:14:11;1.10;99.90
12720;DHT22;6424;48.520;11.228;2022-11-15T06:16:37;1.00;99.90
12720;DHT22;6424;48.520;11.228;2022-11-15T06:19:17;1.00;99.90
12720;DHT22;6424;48.520;11.228;2022-11-15T06:21:43;1.00;99.90
12720;DHT22;6424;48.520;11.228;2022-11-15T06:24:24;1.00;99.90
12720;DHT22;6424;48.520;11.228;2022-11-15T06:27:05;1.00;99.90
12720;DHT22;6424;48.520;11.228;2022-11-15T06:29:45;1.00;99.90
12720;DHT22;6424;48.520;11.228;2022-11-15T06:32:26;1.00;99.90
12720;DHT22;6424;48.520;11.228;2022-11-15T06:35:07;1.00;99.90
12720;DHT22;6424;48.520;11.228;2022-11-15T06:37:48;1.00;99.90
12720;DHT22;6424;48.520;11.228;2022-11-15T06:40:29;1.00;99.90
12720;DHT22;6424;48.520;11.228;2022-11-15T06:43:10;1.00;99.90
12720;DHT22;6424;48.520;11.228;2022-11-15T06:45:51;1.00;99.90
12720;DHT22;6424;48.520;11.228;2022-11-15T06:48:33;1.00;99.90
12720;DHT22;6424;48.520;11.228;2022-11-15T06:51:14;1.00;99.90
12720;DHT22;6424;48.520;11.228;2022-11-15T06:53:39;1.00;99.90
12720;DHT22;6424;48.520;11.228;2022-11-15T06:56:20;1.10;99.90
12720;DHT22;6424;48.520;11.228;2022-11-15T06:59:01;1.10;99.90
12720;DHT22;6424;48.520;11.228;2022-11-15T07:01:42;1.10;99.90
12720;DHT22;6424;48.520;11.228;2022-11-15T07:04:07;1.10;99.90
12720;DHT22;6424;48.520;11.228;2022-11-15T07:06:48;1.10;99.90
12720;DHT22;6424;48.520;11.228;2022-11-15T07:09:29;1.10;99.90
12720;DHT22;6424;48.520;11.228;2022-11-15T07:11:55;1.20;99.90
12720;DHT22;6424;48.520;11.228;2022-11-15T07:14:35;1.20;99.90
12720;DHT22;6424;48.520;11.228;2022-11-15T07:17:16;1.30;99.90
12720;DHT22;6424;48.520;11.228;2022-11-15T07:19:57;1.40;99.90
12720;DHT22;6424;48.520;11.228;2022-11-15T07:22:38;1.90;99.90
12720;DHT22;6424;48.520;11.228;2022-11-15T07:25:18;2.50;99.90
12720;DHT22;6424;48.520;11.228;2022-11-15T07:28:00;3.10;99.90
12720;DHT22;6424;48.520;11.228;2022-11-15T07:30:27;3.60;99.90
12720;DHT22;6424;48.520;11.228;2022-11-15T07:32:57;4.00;99.90
12720;DHT22;6424;48.520;11.228;2022-11-15T07:35:38;4.20;99.90
12720;DHT22;6424;48.520;11.228;2022-11-15T07:38:19;4.30;99.90
12720;DHT22;6424;48.520;11.228;2022-11-15T07:41:02;4.20;99.90
12720;DHT22;6424;48.520;11.228;2022-11-15T07:43:28;4.00;99.90
12720;DHT22;6424;48.520;11.228;2022-11-15T07:46:09;3.90;99.90
12720;DHT22;6424;48.520;11.228;2022-11-15T07:48:50;3.80;99.90
12720;DHT22;6424;48.520;11.228;2022-11-15T07:51:16;3.60;99.90
12720;DHT22;6424;48.520;11.228;2022-11-15T07:53:57;3.70;99.90
12720;DHT22;6424;48.520;11.228;2022-11-15T07:56:38;3.70;99.90
12720;DHT22;6424;48.520;11.228;2022-11-15T07:59:19;3.80;99.90
12720;DHT22;6424;48.520;11.228;2022-11-15T08:02:00;3.70;99.90
12720;DHT22;6424;48.520;11.228;2022-11-15T08:04:41;3.70;99.90
12720;DHT22;6424;48.520;11.228;2022-11-15T08:07:22;3.70;99.90
12720;DHT22;6424;48.520;11.228;2022-11-15T08:10:03;3.80;99.90
12720;DHT22;6424;48.520;11.228;2022-11-15T08:12:44;3.80;99.90
12720;DHT22;6424;48.520;11.228;2022-11-15T08:15:25;4.00;99.90
12720;DHT22;6424;48.520;11.228;2022-11-15T08:17:59;4.20;99.90
12720;DHT22;6424;48.520;11.228;2022-11-15T08:20:41;4.30;99.90
12720;DHT22;6424;48.520;11.228;2022-11-15T08:23:22;4.40;99.90
12720;DHT22;6424;48.520;11.228;2022-11-15T08:26:03;4.40;99.90
12720;DHT22;6424;48.520;11.228;2022-11-15T08:28:44;4.50;99.90
12720;DHT22;6424;48.520;11.228;2022-11-15T08:31:25;4.70;99.90
12720;DHT22;6424;48.520;11.228;2022-11-15T08:34:06;4.80;99.90
12720;DHT22;6424;48.520;11.228;2022-11-15T08:36:47;4.90;99.90
12720;DHT22;6424;48.520;11.228;2022-11-15T08:39:28;5.10;99.90
12720;DHT22;6424;48.520;11.228;2022-11-15T08:41:54;5.20;99.90
12720;DHT22;6424;48.520;11.228;2022-11-15T08:44:34;5.40;99.90
12720;DHT22;6424;48.520;11.228;2022-11-15T08:47:15;5.50;99.90
12720;DHT22;6424;48.520;11.228;2022-11-15T08:49:56;5.70;99.90
12720;DHT22;6424;48.520;11.228;2022-11-15T08:52:37;5.80;99.90
12720;DHT22;6424;48.520;11.228;2022-11-15T08:55:18;5.90;99.90
12720;DHT22;6424;48.520;11.228;2022-11-15T08:57:58;6.00;99.90
12720;DHT22;6424;48.520;11.228;2022-11-15T09:00:39;6.20;99.90
12720;DHT22;6424;48.520;11.228;2022-11-15T09:03:20;6.40;99.90
12720;DHT22;6424;48.520;11.228;2022-11-15T09:06:01;6.50;99.90
12720;DHT22;6424;48.520;11.228;2022-11-15T09:08:30;6.60;99.90
12720;DHT22;6424;48.520;11.228;2022-11-15T09:11:11;6.80;99.90
12720;DHT22;6424;48.520;11.228;2022-11-15T09:13:52;6.90;99.90
12720;DHT22;6424;48.520;11.228;2022-11-15T09:16:33;7.10;99.90
12720;DHT22;6424;48.520;11.228;2022-11-15T09:19:14;7.20;99.90
12720;DHT22;6424;48.520;11.228;2022-11-15T09:21:55;7.40;99.90
12720;DHT22;6424;48.520;11.228;2022-11-15T09:24:36;7.50;99.90
12720;DHT22;6424;48.520;11.228;2022-11-15T09:27:17;7.60;99.90
12720;DHT22;6424;48.520;11.228;2022-11-15T09:29:58;7.70;99.90
12720;DHT22;6424;48.520;11.228;2022-11-15T09:32:39;7.80;99.90
12720;DHT22;6424;48.520;11.228;2022-11-15T09:35:19;7.80;99.90
12720;DHT22;6424;48.520;11.228;2022-11-15T09:38:01;7.90;99.90
12720;DHT22;6424;48.520;11.228;2022-11-15T09:40:41;7.90;99.90
12720;DHT22;6424;48.520;11.228;2022-11-15T09:49:14;7.70;99.90
12720;DHT22;6424;48.520;11.228;2022-11-15T09:51:55;7.70;99.90
12720;DHT22;6424;48.520;11.228;2022-11-15T09:54:38;7.70;99.90
12720;DHT22;6424;48.520;11.228;2022-11-15T10:00:09;7.70;99.90
12720;DHT22;6424;48.520;11.228;2022-11-15T10:03:08;7.90;99.90
12720;DHT22;6424;48.520;11.228;2022-11-15T10:05:42;8.00;99.90
12720;DHT22;6424;48.520;11.228;2022-11-15T10:11:19;8.10;99.90
12720;DHT22;6424;48.520;11.228;2022-11-15T10:14:13;8.10;99.90
12720;DHT22;6424;48.520;11.228;2022-11-15T10:20:25;8.20;99.90
12720;DHT22;6424;48.520;11.228;2022-11-15T10:23:11;8.20;99.90
12720;DHT22;6424;48.520;11.228;2022-11-15T10:25:56;8.20;99.90
12720;DHT22;6424;48.520;11.228;2022-11-15T10:28:37;8.20;99.90
12720;DHT22;6424;48.520;11.228;2022-11-15T10:31:26;8.20;99.90
12720;DHT22;6424;48.520;11.228;2022-11-15T10:34:15;8.20;99.90
12720;DHT22;6424;48.520;11.228;2022-11-15T10:37:00;8.20;99.90
12720;DHT22;6424;48.520;11.228;2022-11-15T10:39:42;8.30;99.90
12720;DHT22;6424;48.520;11.228;2022-11-15T10:42:28;8.30;99.90
12720;DHT22;6424;48.520;11.228;2022-11-15T10:45:31;8.40;99.90
12720;DHT22;6424;48.520;11.228;2022-11-15T10:48:20;8.50;99.90
12720;DHT22;6424;48.520;11.228;2022-11-15T10:51:22;8.60;99.90
12720;DHT22;6424;48.520;11.228;2022-11-15T10:54:07;8.80;99.90
12720;DHT22;6424;48.520;11.228;2022-11-15T10:56:57;9.00;99.90
12720;DHT22;6424;48.520;11.228;2022-11-15T10:59:39;9.10;99.90
12720;DHT22;6424;48.520;11.228;2022-11-15T11:05:33;9.30;99.90
12720;DHT22;6424;48.520;11.228;2022-11-15T11:10:57;9.50;99.90
12720;DHT22;6424;48.520;11.228;2022-11-15T11:13:39;9.70;99.90
12720;DHT22;6424;48.520;11.228;2022-11-15T11:16:32;9.80;99.90
12720;DHT22;6424;48.520;11.228;2022-11-15T11:22:20;9.80;99.90
12720;DHT22;6424;48.520;11.228;2022-11-15T11:27:55;9.80;99.90
12720;DHT22;6424;48.520;11.228;2022-11-15T11:37:07;10.00;99.90
12720;DHT22;6424;48.520;11.228;2022-11-15T11:45:28;9.90;99.90
12720;DHT22;6424;48.520;11.228;2022-11-15T11:48:20;10.00;99.90
12720;DHT22;6424;48.520;11.228;2022-11-15T11:51:26;10.10;99.90
12720;DHT22;6424;48.520;11.228;2022-11-15T11:54:17;10.30;99.90
12720;DHT22;6424;48.520;11.228;2022-11-15T11:57:02;10.50;99.90
12720;DHT22;6424;48.520;11.228;2022-11-15T11:59:56;10.60;99.90
12720;DHT22;6424;48.520;11.228;2022-11-15T12:02:42;10.60;99.90
12720;DHT22;6424;48.520;11.228;2022-11-15T12:05:31;10.60;99.90
12720;DHT22;6424;48.520;11.228;2022-11-15T12:09:23;10.60;99.90
12720;DHT22;6424;48.520;11.228;2022-11-15T12:11:47;10.60;99.90
12720;DHT22;6424;48.520;11.228;2022-11-15T12:14:55;10.50;99.90
12720;DHT22;6424;48.520;11.228;2022-11-15T12:17:39;10.50;99.90
12720;DHT22;6424;48.520;11.228;2022-11-15T12:20:23;10.60;99.90
12720;DHT22;6424;48.520;11.228;2022-11-15T12:23:20;10.70;99.90
12720;DHT22;6424;48.520;11.228;2022-11-15T12:28:58;11.00;99.90
12720;DHT22;6424;48.520;11.228;2022-11-15T12:37:00;11.10;99.90
12720;DHT22;6424;48.520;11.228;2022-11-15T12:43:20;11.10;99.90
12720;DHT22;6424;48.520;11.228;2022-11-15T12:46:10;11.30;99.90
12720;DHT22;6424;48.520;11.228;2022-11-15T12:48:54;11.30;99.90
12720;DHT22;6424;48.520;11.228;2022-11-15T13:15:43;11.10;99.90
12720;DHT22;6424;48.520;11.228;2022-11-15T13:18:40;11.00;99.90
12720;DHT22;6424;48.520;11.228;2022-11-15T13:21:23;10.90;99.90
12720;DHT22;6424;48.520;11.228;2022-11-15T13:24:23;10.80;99.90
12720;DHT22;6424;48.520;11.228;2022-11-15T13:26:48;10.70;99.90
12720;DHT22;6424;48.520;11.228;2022-11-15T13:29:29;10.60;99.90
12720;DHT22;6424;48.520;11.228;2022-11-15T13:32:15;10.50;99.90
12720;DHT22;6424;48.520;11.228;2022-11-15T13:34:56;10.40;99.90
12720;DHT22;6424;48.520;11.228;2022-11-15T13:37:38;10.20;99.90
12720;DHT22;6424;48.520;11.228;2022-11-15T13:40:28;10.10;99.90
12720;DHT22;6424;48.520;11.228;2022-11-15T13:46:21;10.10;99.90
12720;DHT22;6424;48.520;11.228;2022-11-15T13:51:43;10.10;99.90
12720;DHT22;6424;48.520;11.228;2022-11-15T13:54:35;10.10;99.90
12720;DHT22;6424;48.520;11.228;2022-11-15T13:57:23;10.00;99.90
12720;DHT22;6424;48.520;11.228;2022-11-15T14:00:30;10.10;99.90
12720;DHT22;6424;48.520;11.228;2022-11-15T14:11:53;10.20;99.90
12720;DHT22;6424;48.520;11.228;2022-11-15T14:14:45;10.20;99.90
12720;DHT22;6424;48.520;11.228;2022-11-15T14:23:27;10.10;99.90
12720;DHT22;6424;48.520;11.228;2022-11-15T14:26:29;10.00;99.90
12720;DHT22;6424;48.520;11.228;2022-11-15T14:28:55;10.00;99.90
12720;DHT22;6424;48.520;11.228;2022-11-15T14:31:36;9.90;99.90
12720;DHT22;6424;48.520;11.228;2022-11-15T14:34:17;9.80;99.90
12720;DHT22;6424;48.520;11.228;2022-11-15T14:36:58;9.70;99.90
12720;DHT22;6424;48.520;11.228;2022-11-15T14:39:39;9.60;99.90
12720;DHT22;6424;48.520;11.228;2022-11-15T14:42:21;9.50;99.90
12720;DHT22;6424;48.520;11.228;2022-11-15T14:45:02;9.40;99.90
12720;DHT22;6424;48.520;11.228;2022-11-15T14:47:43;9.30;99.90
12720;DHT22;6424;48.520;11.228;2022-11-15T14:50:24;9.20;99.90
12720;DHT22;6424;48.520;11.228;2022-11-15T14:52:50;9.10;99.90
12720;DHT22;6424;48.520;11.228;2022-11-15T14:55:35;9.00;99.90
12720;DHT22;6424;48.520;11.228;2022-11-15T14:58:16;8.90;99.90
12720;DHT22;6424;48.520;11.228;2022-11-15T15:00:57;8.80;99.90
12720;DHT22;6424;48.520;11.228;2022-11-15T15:03:38;8.80;99.90
12720;DHT22;6424;48.520;11.228;2022-11-15T15:06:19;8.60;99.90
12720;DHT22;6424;48.520;11.228;2022-11-15T15:09:00;8.60;99.90
12720;DHT22;6424;48.520;11.228;2022-11-15T15:11:41;8.50;99.90
12720;DHT22;6424;48.520;11.228;2022-11-15T15:14:21;8.40;99.90
12720;DHT22;6424;48.520;11.228;2022-11-15T15:17:02;8.30;99.90
12720;DHT22;6424;48.520;11.228;2022-11-15T15:19:43;8.30;99.90
12720;DHT22;6424;48.520;11.228;2022-11-15T15:22:27;8.30;99.90
12720;DHT22;6424;48.520;11.228;2022-11-15T15:25:33;8.20;99.90
12720;DHT22;6424;48.520;11.228;2022-11-15T15:28:15;8.00;99.90
12720;DHT22;6424;48.520;11.228;2022-11-15T15:30:56;7.90;99.90
12720;DHT22;6424;48.520;11.228;2022-11-15T15:33:37;7.80;99.90
12720;DHT22;6424;48.520;11.228;2022-11-15T15:36:18;7.70;99.90
12720;DHT22;6424;48.520;11.228;2022-11-15T15:38:59;7.60;99.90
12720;DHT22;6424;48.520;11.228;2022-11-15T15:41:40;7.50;99.90
12720;DHT22;6424;48.520;11.228;2022-11-15T15:44:06;7.50;99.90
12720;DHT22;6424;48.520;11.228;2022-11-15T15:46:46;7.40;99.90
12720;DHT22;6424;48.520;11.228;2022-11-15T15:49:27;7.30;99.90
12720;DHT22;6424;48.520;11.228;2022-11-15T15:52:08;7.30;99.90
12720;DHT22;6424;48.520;11.228;2022-11-15T15:54:34;7.20;99.90
12720;DHT22;6424;48.520;11.228;2022-11-15T15:57:15;7.20;99.90
12720;DHT22;6424;48.520;11.228;2022-11-15T15:59:55;7.20;99.90
12720;DHT22;6424;48.520;11.228;2022-11-15T16:02:21;7.20;99.90
12720;DHT22;6424;48.520;11.228;2022-11-15T16:05:02;7.20;99.90
12720;DHT22;6424;48.520;11.228;2022-11-15T16:07:43;7.20;99.90
12720;DHT22;6424;48.520;11.228;2022-11-15T16:10:33;7.20;99.90
12720;DHT22;6424;48.520;11.228;2022-11-15T16:13:15;7.20;99.90
12720;DHT22;6424;48.520;11.228;2022-11-15T16:15:42;7.10;99.90
12720;DHT22;6424;48.520;11.228;2022-11-15T16:18:23;7.10;99.90
12720;DHT22;6424;48.520;11.228;2022-11-15T16:21:03;7.10;99.90
12720;DHT22;6424;48.520;11.228;2022-11-15T16:23:44;7.00;99.90
12720;DHT22;6424;48.520;11.228;2022-11-15T16:26:27;7.00;99.90
12720;DHT22;6424;48.520;11.228;2022-11-15T16:29:10;7.00;99.90
12720;DHT22;6424;48.520;11.228;2022-11-15T16:31:51;7.00;99.90
12720;DHT22;6424;48.520;11.228;2022-11-15T16:34:31;7.00;99.90
12720;DHT22;6424;48.520;11.228;2022-11-15T16:37:21;7.00;99.90
12720;DHT22;6424;48.520;11.228;2022-11-15T16:39:48;7.00;99.90
12720;DHT22;6424;48.520;11.228;2022-11-15T16:42:28;7.00;99.90
12720;DHT22;6424;48.520;11.228;2022-11-15T16:45:11;7.00;99.90
12720;DHT22;6424;48.520;11.228;2022-11-15T16:47:55;7.00;99.90
12720;DHT22;6424;48.520;11.228;2022-11-15T16:50:36;7.00;99.90
12720;DHT22;6424;48.520;11.228;2022-11-15T16:53:20;7.00;99.90
12720;DHT22;6424;48.520;11.228;2022-11-15T16:56:00;6.90;99.90
12720;DHT22;6424;48.520;11.228;2022-11-15T16:58:41;6.90;99.90
12720;DHT22;6424;48.520;11.228;2022-11-15T17:01:24;6.90;99.90
12720;DHT22;6424;48.520;11.228;2022-11-15T17:04:05;7.00;99.90
12720;DHT22;6424;48.520;11.228;2022-11-15T17:06:52;7.00;99.90
12720;DHT22;6424;48.520;11.228;2022-11-15T17:09:32;7.00;99.90
12720;DHT22;6424;48.520;11.228;2022-11-15T17:12:13;7.00;99.90
12720;DHT22;6424;48.520;11.228;2022-11-15T17:14:54;7.00;99.90
12720;DHT22;6424;48.520;11.228;2022-11-15T17:17:35;7.00;99.90
12720;DHT22;6424;48.520;11.228;2022-11-15T17:20:17;7.00;99.90
12720;DHT22;6424;48.520;11.228;2022-11-15T17:22:58;7.00;99.90
12720;DHT22;6424;48.520;11.228;2022-11-15T17:25:39;7.00;99.90
12720;DHT22;6424;48.520;11.228;2022-11-15T17:28:19;7.00;99.90
12720;DHT22;6424;48.520;11.228;2022-11-15T17:31:00;7.00;99.90
12720;DHT22;6424;48.520;11.228;2022-11-15T17:33:41;7.00;99.90
12720;DHT22;6424;48.520;11.228;2022-11-15T17:36:22;7.00;99.90
12720;DHT22;6424;48.520;11.228;2022-11-15T17:39:03;7.00;99.90
12720;DHT22;6424;48.520;11.228;2022-11-15T17:41:44;7.00;99.90
12720;DHT22;6424;48.520;11.228;2022-11-15T17:44:25;7.00;99.90
12720;DHT22;6424;48.520;11.228;2022-11-15T17:47:06;6.90;99.90
12720;DHT22;6424;48.520;11.228;2022-11-15T17:49:48;7.00;99.90
12720;DHT22;6424;48.520;11.228;2022-11-15T17:52:28;7.00;99.90
12720;DHT22;6424;48.520;11.228;2022-11-15T17:55:09;7.10;99.90
12720;DHT22;6424;48.520;11.228;2022-11-15T17:57:50;7.10;99.90
12720;DHT22;6424;48.520;11.228;2022-11-15T18:00:31;7.10;99.90
12720;DHT22;6424;48.520;11.228;2022-11-15T18:03:12;7.10;99.90
12720;DHT22;6424;48.520;11.228;2022-11-15T18:05:39;7.00;99.90
12720;DHT22;6424;48.520;11.228;2022-11-15T18:08:23;7.00;99.90
12720;DHT22;6424;48.520;11.228;2022-11-15T18:11:06;7.00;99.90
12720;DHT22;6424;48.520;11.228;2022-11-15T18:13:49;7.00;99.90
12720;DHT22;6424;48.520;11.228;2022-11-15T18:16:34;6.90;99.90
12720;DHT22;6424;48.520;11.228;2022-11-15T18:19:15;6.90;99.90
12720;DHT22;6424;48.520;11.228;2022-11-15T18:21:56;6.80;99.90
12720;DHT22;6424;48.520;11.228;2022-11-15T18:24:37;6.80;99.90
12720;DHT22;6424;48.520;11.228;2022-11-15T18:27:18;6.80;99.90
12720;DHT22;6424;48.520;11.228;2022-11-15T18:29:59;6.80;99.90
12720;DHT22;6424;48.520;11.228;2022-11-15T18:32:39;6.80;99.90
12720;DHT22;6424;48.520;11.228;2022-11-15T18:35:06;6.70;99.90
12720;DHT22;6424;48.520;11.228;2022-11-15T18:37:46;6.70;99.90
12720;DHT22;6424;48.520;11.228;2022-11-15T18:40:27;6.70;99.90
12720;DHT22;6424;48.520;11.228;2022-11-15T18:43:08;6.70;99.90
12720;DHT22;6424;48.520;11.228;2022-11-15T18:45:49;6.70;99.90
12720;DHT22;6424;48.520;11.228;2022-11-15T18:48:30;6.70;99.90
12720;DHT22;6424;48.520;11.228;2022-11-15T18:51:13;6.70;99.90
12720;DHT22;6424;48.520;11.228;2022-11-15T18:53:56;6.70;99.90
12720;DHT22;6424;48.520;11.228;2022-11-15T18:56:38;6.70;99.90
12720;DHT22;6424;48.520;11.228;2022-11-15T18:59:18;6.70;99.90
12720;DHT22;6424;48.520;11.228;2022-11-15T19:01:59;6.70;99.90
12720;DHT22;6424;48.520;11.228;2022-11-15T19:04:40;6.70;99.90
12720;DHT22;6424;48.520;11.228;2022-11-15T19:07:21;6.70;99.90
12720;DHT22;6424;48.520;11.228;2022-11-15T19:10:02;6.70;99.90
12720;DHT22;6424;48.520;11.228;2022-11-15T19:12:43;6.70;99.90
12720;DHT22;6424;48.520;11.228;2022-11-15T19:15:25;6.60;99.90
12720;DHT22;6424;48.520;11.228;2022-11-15T19:18:06;6.60;99.90
12720;DHT22;6424;48.520;11.228;2022-11-15T19:20:47;6.60;99.90
12720;DHT22;6424;48.520;11.228;2022-11-15T19:23:32;6.60;99.90
12720;DHT22;6424;48.520;11.228;2022-11-15T19:26:15;6.60;99.90